sensor_id;sensor_type;location;lat;lon;timestamp;P1;durP1;ratioP1;P2;durP2;ratioP2
15841;SDS011;8021;48.022;11.812;2022-10-03T00:00:27;0.30;;;0.30;;
15841;SDS011;8021;48.022;11.812;2022-10-03T00:05:50;0.40;;;0.40;;
15841;SDS011;8021;48.022;11.812;2022-10-03T00:08:24;0.32;;;0.32;;
15841;SDS011;8021;48.022;11.812;2022-10-03T00:10:59;0.30;;;0.30;;
15841;SDS011;8021;48.022;11.812;2022-10-03T00:13:32;0.32;;;0.32;;
15841;SDS011;8021;48.022;11.812;2022-10-03T00:16:05;0.40;;;0.40;;
15841;SDS011;8021;48.022;11.812;2022-10-03T00:18:39;0.30;;;0.30;;
15841;SDS011;8021;48.022;11.812;2022-10-03T00:21:14;0.40;;;0.40;;
15841;SDS011;8021;48.022;11.812;2022-10-03T00:23:46;0.30;;;0.30;;
15841;SDS011;8021;48.022;11.812;2022-10-03T00:26:19;0.30;;;0.30;;
15841;SDS011;8021;48.022;11.812;2022-10-03T00:29:06;0.40;;;0.40;;
15841;SDS011;8021;48.022;11.812;2022-10-03T00:32:06;0.50;;;0.50;;
15841;SDS011;8021;48.022;11.812;2022-10-03T00:34:38;0.40;;;0.40;;
15841;SDS011;8021;48.022;11.812;2022-10-03T00:37:16;0.30;;;0.30;;
15841;SDS011;8021;48.022;11.812;2022-10-03T00:45:30;0.40;;;0.40;;
15841;SDS011;8021;48.022;11.812;2022-10-03T00:48:16;0.30;;;0.30;;
15841;SDS011;8021;48.022;11.812;2022-10-03T00:50:51;0.30;;;0.30;;
15841;SDS011;8021;48.022;11.812;2022-10-03T00:53:27;0.40;;;0.40;;
15841;SDS011;8021;48.022;11.812;2022-10-03T00:56:01;0.30;;;0.30;;
15841;SDS011;8021;48.022;11.812;2022-10-03T00:58:48;0.38;;;0.38;;
15841;SDS011;8021;48.022;11.812;2022-10-03T01:01:21;0.35;;;0.35;;
15841;SDS011;8021;48.022;11.812;2022-10-03T01:03:53;0.30;;;0.30;;
15841;SDS011;8021;48.022;11.812;2022-10-03T01:06:24;0.32;;;0.32;;
15841;SDS011;8021;48.022;11.812;2022-10-03T01:09:02;0.40;;;0.40;;
15841;SDS011;8021;48.022;11.812;2022-10-03T01:11:38;0.47;;;0.47;;
15841;SDS011;8021;48.022;11.812;2022-10-03T01:14:14;0.40;;;0.40;;
15841;SDS011;8021;48.022;11.812;2022-10-03T01:16:50;0.40;;;0.40;;
15841;SDS011;8021;48.022;11.812;2022-10-03T01:19:29;0.30;;;0.30;;
15841;SDS011;8021;48.022;11.812;2022-10-03T01:22:03;0.40;;;0.40;;
15841;SDS011;8021;48.022;11.812;2022-10-03T01:27:16;0.40;;;0.40;;
15841;SDS011;8021;48.022;11.812;2022-10-03T01:29:48;0.30;;;0.30;;
15841;SDS011;8021;48.022;11.812;2022-10-03T01:32:36;0.40;;;0.40;;
15841;SDS011;8021;48.022;11.812;2022-10-03T01:35:10;0.40;;;0.40;;
15841;SDS011;8021;48.022;11.812;2022-10-03T01:37:41;0.40;;;0.40;;
15841;SDS011;8021;48.022;11.812;2022-10-03T01:40:16;0.40;;;0.40;;
15841;SDS011;8021;48.022;11.812;2022-10-03T01:43:00;0.40;;;0.40;;
15841;SDS011;8021;48.022;11.812;2022-10-03T01:45:30;0.40;;;0.40;;
15841;SDS011;8021;48.022;11.812;2022-10-03T01:48:03;0.30;;;0.30;;
15841;SDS011;8021;48.022;11.812;2022-10-03T01:50:34;0.40;;;0.40;;
15841;SDS011;8021;48.022;11.812;2022-10-03T01:53:05;0.30;;;0.30;;
15841;SDS011;8021;48.022;11.812;2022-10-03T01:55:37;0.40;;;0.40;;
15841;SDS011;8021;48.022;11.812;2022-10-03T01:58:08;0.30;;;0.30;;
15841;SDS011;8021;48.022;11.812;2022-10-03T02:00:44;0.50;;;0.50;;
15841;SDS011;8021;48.022;11.812;2022-10-03T02:03:16;0.32;;;0.32;;
15841;SDS011;8021;48.022;11.812;2022-10-03T02:05:47;0.30;;;0.30;;
15841;SDS011;8021;48.022;11.812;2022-10-03T02:08:22;0.30;;;0.30;;
15841;SDS011;8021;48.022;11.812;2022-10-03T02:10:51;0.40;;;0.40;;
15841;SDS011;8021;48.022;11.812;2022-10-03T02:13:21;0.40;;;0.40;;
15841;SDS011;8021;48.022;11.812;2022-10-03T02:15:54;0.40;;;0.40;;
15841;SDS011;8021;48.022;11.812;2022-10-03T02:18:27;0.40;;;0.40;;
15841;SDS011;8021;48.022;11.812;2022-10-03T02:20:57;0.40;;;0.40;;
15841;SDS011;8021;48.022;11.812;2022-10-03T02:23:37;0.40;;;0.40;;
15841;SDS011;8021;48.022;11.812;2022-10-03T02:26:13;0.40;;;0.40;;
15841;SDS011;8021;48.022;11.812;2022-10-03T02:28:55;0.35;;;0.35;;
15841;SDS011;8021;48.022;11.812;2022-10-03T02:34:18;0.30;;;0.30;;
15841;SDS011;8021;48.022;11.812;2022-10-03T02:36:57;0.40;;;0.40;;
15841;SDS011;8021;48.022;11.812;2022-10-03T02:39:38;0.30;;;0.30;;
15841;SDS011;8021;48.022;11.812;2022-10-03T02:45:05;0.40;;;0.40;;
15841;SDS011;8021;48.022;11.812;2022-10-03T02:47:47;0.30;;;0.30;;
15841;SDS011;8021;48.022;11.812;2022-10-03T02:50:53;0.40;;;0.40;;
15841;SDS011;8021;48.022;11.812;2022-10-03T02:59:17;0.40;;;0.40;;
15841;SDS011;8021;48.022;11.812;2022-10-03T03:01:56;0.40;;;0.40;;
15841;SDS011;8021;48.022;11.812;2022-10-03T03:04:36;0.40;;;0.40;;
15841;SDS011;8021;48.022;11.812;2022-10-03T03:07:16;0.40;;;0.40;;
15841;SDS011;8021;48.022;11.812;2022-10-03T03:09:52;0.40;;;0.40;;
15841;SDS011;8021;48.022;11.812;2022-10-03T03:12:32;0.40;;;0.40;;
15841;SDS011;8021;48.022;11.812;2022-10-03T03:17:55;0.30;;;0.30;;
15841;SDS011;8021;48.022;11.812;2022-10-03T03:20:27;0.38;;;0.38;;
15841;SDS011;8021;48.022;11.812;2022-10-03T03:23:06;0.30;;;0.30;;
15841;SDS011;8021;48.022;11.812;2022-10-03T03:25:46;0.40;;;0.40;;
15841;SDS011;8021;48.022;11.812;2022-10-03T03:28:20;0.30;;;0.30;;
15841;SDS011;8021;48.022;11.812;2022-10-03T03:30:52;0.40;;;0.40;;
15841;SDS011;8021;48.022;11.812;2022-10-03T03:33:23;0.40;;;0.40;;
15841;SDS011;8021;48.022;11.812;2022-10-03T03:35:55;0.40;;;0.40;;
15841;SDS011;8021;48.022;11.812;2022-10-03T03:38:28;0.30;;;0.30;;
15841;SDS011;8021;48.022;11.812;2022-10-03T03:41:02;0.40;;;0.40;;
15841;SDS011;8021;48.022;11.812;2022-10-03T03:43:36;0.35;;;0.35;;
15841;SDS011;8021;48.022;11.812;2022-10-03T03:46:10;0.50;;;0.50;;
15841;SDS011;8021;48.022;11.812;2022-10-03T03:48:48;0.40;;;0.40;;
15841;SDS011;8021;48.022;11.812;2022-10-03T03:51:20;0.30;;;0.30;;
15841;SDS011;8021;48.022;11.812;2022-10-03T03:53:53;0.30;;;0.30;;
15841;SDS011;8021;48.022;11.812;2022-10-03T03:56:27;0.40;;;0.40;;
15841;SDS011;8021;48.022;11.812;2022-10-03T03:59:01;0.40;;;0.40;;
15841;SDS011;8021;48.022;11.812;2022-10-03T04:04:18;0.40;;;0.40;;
15841;SDS011;8021;48.022;11.812;2022-10-03T04:06:51;0.40;;;0.40;;
15841;SDS011;8021;48.022;11.812;2022-10-03T04:09:41;0.50;;;0.50;;
15841;SDS011;8021;48.022;11.812;2022-10-03T04:12:13;0.50;;;0.50;;
15841;SDS011;8021;48.022;11.812;2022-10-03T04:14:51;0.40;;;0.40;;
15841;SDS011;8021;48.022;11.812;2022-10-03T04:17:24;0.35;;;0.35;;
15841;SDS011;8021;48.022;11.812;2022-10-03T04:20:17;0.40;;;0.40;;
15841;SDS011;8021;48.022;11.812;2022-10-03T04:22:55;0.43;;;0.43;;
15841;SDS011;8021;48.022;11.812;2022-10-03T04:28:16;0.40;;;0.40;;
15841;SDS011;8021;48.022;11.812;2022-10-03T04:30:49;0.30;;;0.30;;
15841;SDS011;8021;48.022;11.812;2022-10-03T04:33:24;0.40;;;0.40;;
15841;SDS011;8021;48.022;11.812;2022-10-03T04:36:05;0.40;;;0.40;;
15841;SDS011;8021;48.022;11.812;2022-10-03T04:38:38;0.40;;;0.40;;
15841;SDS011;8021;48.022;11.812;2022-10-03T04:41:11;0.30;;;0.30;;
15841;SDS011;8021;48.022;11.812;2022-10-03T04:43:41;0.40;;;0.40;;
15841;SDS011;8021;48.022;11.812;2022-10-03T04:46:17;0.40;;;0.40;;
15841;SDS011;8021;48.022;11.812;2022-10-03T04:48:49;0.40;;;0.40;;
15841;SDS011;8021;48.022;11.812;2022-10-03T04:51:19;0.40;;;0.40;;
15841;SDS011;8021;48.022;11.812;2022-10-03T04:53:52;0.40;;;0.40;;
15841;SDS011;8021;48.022;11.812;2022-10-03T04:56:38;0.40;;;0.40;;
15841;SDS011;8021;48.022;11.812;2022-10-03T04:59:25;0.40;;;0.40;;
15841;SDS011;8021;48.022;11.812;2022-10-03T05:01:56;0.40;;;0.40;;
15841;SDS011;8021;48.022;11.812;2022-10-03T05:04:28;0.40;;;0.40;;
15841;SDS011;8021;48.022;11.812;2022-10-03T05:06:59;0.40;;;0.40;;
15841;SDS011;8021;48.022;11.812;2022-10-03T05:12:27;0.30;;;0.30;;
15841;SDS011;8021;48.022;11.812;2022-10-03T05:15:10;0.40;;;0.40;;
15841;SDS011;8021;48.022;11.812;2022-10-03T05:17:43;0.40;;;0.40;;
15841;SDS011;8021;48.022;11.812;2022-10-03T05:20:17;0.30;;;0.30;;
15841;SDS011;8021;48.022;11.812;2022-10-03T05:22:49;0.40;;;0.40;;
15841;SDS011;8021;48.022;11.812;2022-10-03T05:25:23;0.40;;;0.40;;
15841;SDS011;8021;48.022;11.812;2022-10-03T05:27:57;0.38;;;0.38;;
15841;SDS011;8021;48.022;11.812;2022-10-03T05:30:32;0.30;;;0.30;;
15841;SDS011;8021;48.022;11.812;2022-10-03T05:33:04;0.40;;;0.40;;
15841;SDS011;8021;48.022;11.812;2022-10-03T05:35:41;0.30;;;0.30;;
15841;SDS011;8021;48.022;11.812;2022-10-03T05:38:22;0.40;;;0.40;;
15841;SDS011;8021;48.022;11.812;2022-10-03T05:40:59;0.40;;;0.40;;
15841;SDS011;8021;48.022;11.812;2022-10-03T05:43:32;0.30;;;0.30;;
15841;SDS011;8021;48.022;11.812;2022-10-03T05:46:06;0.30;;;0.30;;
15841;SDS011;8021;48.022;11.812;2022-10-03T05:48:40;0.40;;;0.40;;
15841;SDS011;8021;48.022;11.812;2022-10-03T05:51:19;0.40;;;0.40;;
15841;SDS011;8021;48.022;11.812;2022-10-03T05:54:13;0.30;;;0.30;;
15841;SDS011;8021;48.022;11.812;2022-10-03T05:56:51;0.40;;;0.40;;
15841;SDS011;8021;48.022;11.812;2022-10-03T05:59:27;0.30;;;0.30;;
15841;SDS011;8021;48.022;11.812;2022-10-03T06:04:55;0.30;;;0.30;;
15841;SDS011;8021;48.022;11.812;2022-10-03T06:07:27;0.25;;;0.25;;
15841;SDS011;8021;48.022;11.812;2022-10-03T06:12:41;0.30;;;0.30;;
15841;SDS011;8021;48.022;11.812;2022-10-03T06:15:28;0.30;;;0.30;;
15841;SDS011;8021;48.022;11.812;2022-10-03T06:18:01;0.30;;;0.20;;
15841;SDS011;8021;48.022;11.812;2022-10-03T06:23:32;0.30;;;0.30;;
15841;SDS011;8021;48.022;11.812;2022-10-03T06:29:01;0.30;;;0.30;;
15841;SDS011;8021;48.022;11.812;2022-10-03T06:31:46;0.30;;;0.30;;
15841;SDS011;8021;48.022;11.812;2022-10-03T06:34:28;0.30;;;0.30;;
15841;SDS011;8021;48.022;11.812;2022-10-03T06:37:06;0.38;;;0.38;;
15841;SDS011;8021;48.022;11.812;2022-10-03T06:39:52;0.35;;;0.35;;
15841;SDS011;8021;48.022;11.812;2022-10-03T06:48:02;0.30;;;0.30;;
15841;SDS011;8021;48.022;11.812;2022-10-03T07:04:24;0.30;;;0.30;;
15841;SDS011;8021;48.022;11.812;2022-10-03T07:09:57;0.40;;;0.40;;
15841;SDS011;8021;48.022;11.812;2022-10-03T07:15:22;0.35;;;0.35;;
15841;SDS011;8021;48.022;11.812;2022-10-03T07:21:26;0.40;;;0.40;;
15841;SDS011;8021;48.022;11.812;2022-10-03T07:24:01;0.32;;;0.32;;
15841;SDS011;8021;48.022;11.812;2022-10-03T07:26:43;0.30;;;0.30;;
15841;SDS011;8021;48.022;11.812;2022-10-03T07:32:14;0.30;;;0.30;;
15841;SDS011;8021;48.022;11.812;2022-10-03T07:34:52;0.30;;;0.30;;
15841;SDS011;8021;48.022;11.812;2022-10-03T07:37:37;0.30;;;0.20;;
15841;SDS011;8021;48.022;11.812;2022-10-03T07:40:35;0.30;;;0.30;;
15841;SDS011;8021;48.022;11.812;2022-10-03T07:46:04;0.30;;;0.30;;
15841;SDS011;8021;48.022;11.812;2022-10-03T07:48:46;0.30;;;0.30;;
15841;SDS011;8021;48.022;11.812;2022-10-03T07:51:24;0.30;;;0.30;;
15841;SDS011;8021;48.022;11.812;2022-10-03T07:56:53;0.40;;;0.40;;
15841;SDS011;8021;48.022;11.812;2022-10-03T07:59:34;0.40;;;0.40;;
15841;SDS011;8021;48.022;11.812;2022-10-03T08:02:14;0.30;;;0.30;;
15841;SDS011;8021;48.022;11.812;2022-10-03T08:04:53;0.40;;;0.40;;
15841;SDS011;8021;48.022;11.812;2022-10-03T08:07:36;0.30;;;0.30;;
15841;SDS011;8021;48.022;11.812;2022-10-03T08:10:17;0.38;;;0.38;;
15841;SDS011;8021;48.022;11.812;2022-10-03T08:12:54;0.30;;;0.30;;
15841;SDS011;8021;48.022;11.812;2022-10-03T08:15:28;0.30;;;0.20;;
15841;SDS011;8021;48.022;11.812;2022-10-03T08:18:00;0.30;;;0.20;;
15841;SDS011;8021;48.022;11.812;2022-10-03T08:23:35;0.20;;;0.20;;
15841;SDS011;8021;48.022;11.812;2022-10-03T08:26:10;0.20;;;0.20;;
15841;SDS011;8021;48.022;11.812;2022-10-03T08:28:52;0.10;;;0.10;;
15841;SDS011;8021;48.022;11.812;2022-10-03T08:31:33;0.20;;;0.20;;
15841;SDS011;8021;48.022;11.812;2022-10-03T08:34:16;0.10;;;0.10;;
15841;SDS011;8021;48.022;11.812;2022-10-03T08:39:49;0.10;;;0.10;;
15841;SDS011;8021;48.022;11.812;2022-10-03T08:45:28;0.17;;;0.15;;
15841;SDS011;8021;48.022;11.812;2022-10-03T08:50:58;0.10;;;0.10;;
15841;SDS011;8021;48.022;11.812;2022-10-03T08:53:45;0.20;;;0.20;;
15841;SDS011;8021;48.022;11.812;2022-10-03T08:56:15;0.20;;;0.20;;
15841;SDS011;8021;48.022;11.812;2022-10-03T09:01:36;0.20;;;0.10;;
15841;SDS011;8021;48.022;11.812;2022-10-03T09:09:50;0.20;;;0.20;;
15841;SDS011;8021;48.022;11.812;2022-10-03T09:12:34;0.20;;;0.10;;
15841;SDS011;8021;48.022;11.812;2022-10-03T09:15:09;0.20;;;0.20;;
15841;SDS011;8021;48.022;11.812;2022-10-03T09:17:59;0.20;;;0.20;;
15841;SDS011;8021;48.022;11.812;2022-10-03T09:23:29;0.30;;;0.20;;
15841;SDS011;8021;48.022;11.812;2022-10-03T09:26:16;0.20;;;0.20;;
15841;SDS011;8021;48.022;11.812;2022-10-03T09:29:06;0.20;;;0.13;;
15841;SDS011;8021;48.022;11.812;2022-10-03T09:31:49;0.30;;;0.20;;
15841;SDS011;8021;48.022;11.812;2022-10-03T09:34:37;0.20;;;0.20;;
15841;SDS011;8021;48.022;11.812;2022-10-03T09:37:23;0.30;;;0.20;;
15841;SDS011;8021;48.022;11.812;2022-10-03T09:40:13;0.30;;;0.20;;
15841;SDS011;8021;48.022;11.812;2022-10-03T09:48:25;0.20;;;0.20;;
15841;SDS011;8021;48.022;11.812;2022-10-03T09:51:17;0.20;;;0.20;;
15841;SDS011;8021;48.022;11.812;2022-10-03T09:53:53;0.30;;;0.20;;
15841;SDS011;8021;48.022;11.812;2022-10-03T09:56:33;0.20;;;0.20;;
15841;SDS011;8021;48.022;11.812;2022-10-03T09:59:08;0.30;;;0.20;;
15841;SDS011;8021;48.022;11.812;2022-10-03T10:01:39;0.20;;;0.10;;
15841;SDS011;8021;48.022;11.812;2022-10-03T10:04:18;0.20;;;0.20;;
15841;SDS011;8021;48.022;11.812;2022-10-03T10:12:49;0.20;;;0.20;;
15841;SDS011;8021;48.022;11.812;2022-10-03T10:15:30;0.30;;;0.20;;
15841;SDS011;8021;48.022;11.812;2022-10-03T10:18:19;0.30;;;0.20;;
15841;SDS011;8021;48.022;11.812;2022-10-03T10:21:02;0.20;;;0.20;;
15841;SDS011;8021;48.022;11.812;2022-10-03T10:23:40;0.20;;;0.20;;
15841;SDS011;8021;48.022;11.812;2022-10-03T10:26:22;0.30;;;0.20;;
15841;SDS011;8021;48.022;11.812;2022-10-03T10:34:43;0.25;;;0.20;;
15841;SDS011;8021;48.022;11.812;2022-10-03T10:43:06;0.20;;;0.20;;
15841;SDS011;8021;48.022;11.812;2022-10-03T10:45:45;0.30;;;0.20;;
15841;SDS011;8021;48.022;11.812;2022-10-03T10:57:01;0.20;;;0.20;;
15841;SDS011;8021;48.022;11.812;2022-10-03T10:59:41;0.20;;;0.20;;
15841;SDS011;8021;48.022;11.812;2022-10-03T11:10:35;0.30;;;0.20;;
15841;SDS011;8021;48.022;11.812;2022-10-03T11:21:48;0.20;;;0.17;;
15841;SDS011;8021;48.022;11.812;2022-10-03T11:24:29;0.20;;;0.20;;
15841;SDS011;8021;48.022;11.812;2022-10-03T11:27:08;0.30;;;0.20;;
15841;SDS011;8021;48.022;11.812;2022-10-03T11:29:48;0.20;;;0.20;;
15841;SDS011;8021;48.022;11.812;2022-10-03T11:35:13;0.20;;;0.20;;
15841;SDS011;8021;48.022;11.812;2022-10-03T11:37:47;0.30;;;0.30;;
15841;SDS011;8021;48.022;11.812;2022-10-03T11:40:28;0.20;;;0.20;;
15841;SDS011;8021;48.022;11.812;2022-10-03T11:45:40;0.20;;;0.20;;
15841;SDS011;8021;48.022;11.812;2022-10-03T11:48:16;0.20;;;0.13;;
15841;SDS011;8021;48.022;11.812;2022-10-03T11:50:52;0.20;;;0.20;;
15841;SDS011;8021;48.022;11.812;2022-10-03T11:53:35;0.20;;;0.20;;
15841;SDS011;8021;48.022;11.812;2022-10-03T11:56:10;0.20;;;0.20;;
15841;SDS011;8021;48.022;11.812;2022-10-03T11:58:48;0.30;;;0.20;;
15841;SDS011;8021;48.022;11.812;2022-10-03T12:01:22;0.20;;;0.20;;
15841;SDS011;8021;48.022;11.812;2022-10-03T12:03:51;0.30;;;0.20;;
15841;SDS011;8021;48.022;11.812;2022-10-03T12:06:24;0.20;;;0.20;;
15841;SDS011;8021;48.022;11.812;2022-10-03T12:09:15;0.20;;;0.20;;
15841;SDS011;8021;48.022;11.812;2022-10-03T12:11:45;0.30;;;0.20;;
15841;SDS011;8021;48.022;11.812;2022-10-03T12:14:19;0.30;;;0.20;;
15841;SDS011;8021;48.022;11.812;2022-10-03T12:16:53;0.30;;;0.20;;
15841;SDS011;8021;48.022;11.812;2022-10-03T12:19:25;0.20;;;0.20;;
15841;SDS011;8021;48.022;11.812;2022-10-03T12:21:56;0.30;;;0.20;;
15841;SDS011;8021;48.022;11.812;2022-10-03T12:24:27;0.20;;;0.20;;
15841;SDS011;8021;48.022;11.812;2022-10-03T12:27:02;0.20;;;0.20;;
15841;SDS011;8021;48.022;11.812;2022-10-03T12:29:32;0.20;;;0.20;;
15841;SDS011;8021;48.022;11.812;2022-10-03T12:32:08;0.20;;;0.20;;
15841;SDS011;8021;48.022;11.812;2022-10-03T12:34:41;0.30;;;0.20;;
15841;SDS011;8021;48.022;11.812;2022-10-03T12:39:58;0.20;;;0.20;;
15841;SDS011;8021;48.022;11.812;2022-10-03T12:42:32;0.20;;;0.20;;
15841;SDS011;8021;48.022;11.812;2022-10-03T12:45:01;0.20;;;0.20;;
15841;SDS011;8021;48.022;11.812;2022-10-03T12:47:31;0.20;;;0.20;;
15841;SDS011;8021;48.022;11.812;2022-10-03T12:50:26;0.20;;;0.20;;
15841;SDS011;8021;48.022;11.812;2022-10-03T12:52:58;0.20;;;0.20;;
15841;SDS011;8021;48.022;11.812;2022-10-03T12:55:32;0.30;;;0.20;;
15841;SDS011;8021;48.022;11.812;2022-10-03T12:58:02;0.28;;;0.22;;
15841;SDS011;8021;48.022;11.812;2022-10-03T13:00:32;0.30;;;0.20;;
15841;SDS011;8021;48.022;11.812;2022-10-03T13:03:15;0.20;;;0.20;;
15841;SDS011;8021;48.022;11.812;2022-10-03T13:08:47;0.20;;;0.10;;
15841;SDS011;8021;48.022;11.812;2022-10-03T13:11:22;0.20;;;0.20;;
15841;SDS011;8021;48.022;11.812;2022-10-03T13:13:58;0.25;;;0.20;;
15841;SDS011;8021;48.022;11.812;2022-10-03T13:16:30;0.20;;;0.20;;
15841;SDS011;8021;48.022;11.812;2022-10-03T13:18:58;0.30;;;0.20;;
15841;SDS011;8021;48.022;11.812;2022-10-03T13:21:46;0.20;;;0.20;;
15841;SDS011;8021;48.022;11.812;2022-10-03T13:24:19;0.20;;;0.20;;
15841;SDS011;8021;48.022;11.812;2022-10-03T13:26:53;0.30;;;0.20;;
15841;SDS011;8021;48.022;11.812;2022-10-03T13:29:26;0.30;;;0.20;;
15841;SDS011;8021;48.022;11.812;2022-10-03T13:32:06;0.20;;;0.20;;
15841;SDS011;8021;48.022;11.812;2022-10-03T13:34:38;0.20;;;0.10;;
15841;SDS011;8021;48.022;11.812;2022-10-03T13:37:07;0.20;;;0.20;;
15841;SDS011;8021;48.022;11.812;2022-10-03T13:39:42;0.20;;;0.20;;
15841;SDS011;8021;48.022;11.812;2022-10-03T13:42:13;0.20;;;0.20;;
15841;SDS011;8021;48.022;11.812;2022-10-03T13:44:45;0.20;;;0.17;;
15841;SDS011;8021;48.022;11.812;2022-10-03T13:47:18;0.20;;;0.20;;
15841;SDS011;8021;48.022;11.812;2022-10-03T13:49:49;0.20;;;0.20;;
15841;SDS011;8021;48.022;11.812;2022-10-03T13:52:19;0.20;;;0.20;;
15841;SDS011;8021;48.022;11.812;2022-10-03T13:54:59;0.20;;;0.20;;
15841;SDS011;8021;48.022;11.812;2022-10-03T13:57:31;0.30;;;0.20;;
15841;SDS011;8021;48.022;11.812;2022-10-03T14:00:03;0.20;;;0.20;;
15841;SDS011;8021;48.022;11.812;2022-10-03T14:02:56;0.20;;;0.15;;
15841;SDS011;8021;48.022;11.812;2022-10-03T14:05:32;0.20;;;0.20;;
15841;SDS011;8021;48.022;11.812;2022-10-03T14:08:06;0.20;;;0.20;;
15841;SDS011;8021;48.022;11.812;2022-10-03T14:10:47;0.20;;;0.20;;
15841;SDS011;8021;48.022;11.812;2022-10-03T14:13:24;0.20;;;0.20;;
15841;SDS011;8021;48.022;11.812;2022-10-03T14:15:57;0.30;;;0.25;;
15841;SDS011;8021;48.022;11.812;2022-10-03T14:18:33;0.20;;;0.20;;
15841;SDS011;8021;48.022;11.812;2022-10-03T14:21:15;0.20;;;0.20;;
15841;SDS011;8021;48.022;11.812;2022-10-03T14:23:45;0.30;;;0.20;;
15841;SDS011;8021;48.022;11.812;2022-10-03T14:26:17;0.20;;;0.20;;
15841;SDS011;8021;48.022;11.812;2022-10-03T14:28:50;0.30;;;0.30;;
15841;SDS011;8021;48.022;11.812;2022-10-03T14:31:23;0.20;;;0.20;;
15841;SDS011;8021;48.022;11.812;2022-10-03T14:33:58;0.20;;;0.10;;
15841;SDS011;8021;48.022;11.812;2022-10-03T14:36:32;0.20;;;0.20;;
15841;SDS011;8021;48.022;11.812;2022-10-03T14:39:04;0.20;;;0.20;;
15841;SDS011;8021;48.022;11.812;2022-10-03T14:41:44;0.30;;;0.20;;
15841;SDS011;8021;48.022;11.812;2022-10-03T14:44:15;0.30;;;0.22;;
15841;SDS011;8021;48.022;11.812;2022-10-03T14:46:45;0.50;;;0.20;;
15841;SDS011;8021;48.022;11.812;2022-10-03T14:49:16;0.20;;;0.20;;
15841;SDS011;8021;48.022;11.812;2022-10-03T14:52:04;0.30;;;0.22;;
15841;SDS011;8021;48.022;11.812;2022-10-03T14:54:34;0.30;;;0.20;;
15841;SDS011;8021;48.022;11.812;2022-10-03T14:57:12;0.20;;;0.20;;
15841;SDS011;8021;48.022;11.812;2022-10-03T14:59:41;0.30;;;0.30;;
15841;SDS011;8021;48.022;11.812;2022-10-03T15:02:20;0.30;;;0.28;;
15841;SDS011;8021;48.022;11.812;2022-10-03T15:04:51;0.20;;;0.20;;
15841;SDS011;8021;48.022;11.812;2022-10-03T15:07:27;0.30;;;0.20;;
15841;SDS011;8021;48.022;11.812;2022-10-03T15:10:01;0.20;;;0.20;;
15841;SDS011;8021;48.022;11.812;2022-10-03T15:15:25;0.20;;;0.20;;
15841;SDS011;8021;48.022;11.812;2022-10-03T15:17:55;0.30;;;0.20;;
15841;SDS011;8021;48.022;11.812;2022-10-03T15:20:26;0.30;;;0.20;;
15841;SDS011;8021;48.022;11.812;2022-10-03T15:22:56;0.30;;;0.20;;
15841;SDS011;8021;48.022;11.812;2022-10-03T15:25:26;0.20;;;0.20;;
15841;SDS011;8021;48.022;11.812;2022-10-03T15:27:55;0.30;;;0.20;;
15841;SDS011;8021;48.022;11.812;2022-10-03T15:30:25;0.20;;;0.20;;
15841;SDS011;8021;48.022;11.812;2022-10-03T15:33:02;0.20;;;0.20;;
15841;SDS011;8021;48.022;11.812;2022-10-03T15:35:32;0.20;;;0.20;;
15841;SDS011;8021;48.022;11.812;2022-10-03T15:38:09;0.30;;;0.22;;
15841;SDS011;8021;48.022;11.812;2022-10-03T15:40:39;0.30;;;0.30;;
15841;SDS011;8021;48.022;11.812;2022-10-03T15:43:23;0.20;;;0.20;;
15841;SDS011;8021;48.022;11.812;2022-10-03T15:45:55;0.30;;;0.30;;
15841;SDS011;8021;48.022;11.812;2022-10-03T15:48:23;0.30;;;0.30;;
15841;SDS011;8021;48.022;11.812;2022-10-03T15:50:53;0.20;;;0.20;;
15841;SDS011;8021;48.022;11.812;2022-10-03T15:53:23;0.30;;;0.22;;
15841;SDS011;8021;48.022;11.812;2022-10-03T15:56:07;0.30;;;0.20;;
15841;SDS011;8021;48.022;11.812;2022-10-03T15:58:37;0.20;;;0.20;;
15841;SDS011;8021;48.022;11.812;2022-10-03T16:01:07;0.30;;;0.30;;
15841;SDS011;8021;48.022;11.812;2022-10-03T16:03:39;0.30;;;0.28;;
15841;SDS011;8021;48.022;11.812;2022-10-03T16:06:09;0.30;;;0.30;;
15841;SDS011;8021;48.022;11.812;2022-10-03T16:08:41;0.30;;;0.30;;
15841;SDS011;8021;48.022;11.812;2022-10-03T16:11:14;0.30;;;0.20;;
15841;SDS011;8021;48.022;11.812;2022-10-03T16:13:44;0.32;;;0.32;;
15841;SDS011;8021;48.022;11.812;2022-10-03T16:16:16;0.30;;;0.30;;
15841;SDS011;8021;48.022;11.812;2022-10-03T16:18:49;0.38;;;0.38;;
15841;SDS011;8021;48.022;11.812;2022-10-03T16:24:02;0.30;;;0.30;;
15841;SDS011;8021;48.022;11.812;2022-10-03T16:26:32;0.30;;;0.30;;
15841;SDS011;8021;48.022;11.812;2022-10-03T16:29:02;0.30;;;0.30;;
15841;SDS011;8021;48.022;11.812;2022-10-03T16:31:38;0.30;;;0.30;;
15841;SDS011;8021;48.022;11.812;2022-10-03T16:34:11;0.30;;;0.30;;
15841;SDS011;8021;48.022;11.812;2022-10-03T16:36:40;0.30;;;0.30;;
15841;SDS011;8021;48.022;11.812;2022-10-03T16:39:13;0.30;;;0.30;;
15841;SDS011;8021;48.022;11.812;2022-10-03T16:41:42;0.30;;;0.30;;
15841;SDS011;8021;48.022;11.812;2022-10-03T16:44:16;0.30;;;0.30;;
15841;SDS011;8021;48.022;11.812;2022-10-03T16:46:46;0.32;;;0.32;;
15841;SDS011;8021;48.022;11.812;2022-10-03T16:49:21;0.30;;;0.30;;
15841;SDS011;8021;48.022;11.812;2022-10-03T16:52:09;0.40;;;0.40;;
15841;SDS011;8021;48.022;11.812;2022-10-03T16:54:38;0.32;;;0.32;;
15841;SDS011;8021;48.022;11.812;2022-10-03T16:57:10;0.30;;;0.30;;
15841;SDS011;8021;48.022;11.812;2022-10-03T16:59:38;0.35;;;0.35;;
15841;SDS011;8021;48.022;11.812;2022-10-03T17:02:10;0.32;;;0.32;;
15841;SDS011;8021;48.022;11.812;2022-10-03T17:04:40;0.38;;;0.38;;
15841;SDS011;8021;48.022;11.812;2022-10-03T17:10:03;0.40;;;0.40;;
15841;SDS011;8021;48.022;11.812;2022-10-03T17:12:32;0.30;;;0.30;;
15841;SDS011;8021;48.022;11.812;2022-10-03T17:15:01;0.30;;;0.30;;
15841;SDS011;8021;48.022;11.812;2022-10-03T17:17:32;0.40;;;0.40;;
15841;SDS011;8021;48.022;11.812;2022-10-03T17:20:05;0.40;;;0.40;;
15841;SDS011;8021;48.022;11.812;2022-10-03T17:22:35;0.30;;;0.30;;
15841;SDS011;8021;48.022;11.812;2022-10-03T17:25:04;0.40;;;0.40;;
15841;SDS011;8021;48.022;11.812;2022-10-03T17:27:35;0.30;;;0.30;;
15841;SDS011;8021;48.022;11.812;2022-10-03T17:30:04;0.30;;;0.30;;
15841;SDS011;8021;48.022;11.812;2022-10-03T17:32:35;0.30;;;0.30;;
15841;SDS011;8021;48.022;11.812;2022-10-03T17:35:05;0.30;;;0.30;;
15841;SDS011;8021;48.022;11.812;2022-10-03T17:37:55;0.30;;;0.30;;
15841;SDS011;8021;48.022;11.812;2022-10-03T17:40:49;0.40;;;0.40;;
15841;SDS011;8021;48.022;11.812;2022-10-03T17:43:19;0.40;;;0.40;;
15841;SDS011;8021;48.022;11.812;2022-10-03T17:45:48;0.40;;;0.40;;
15841;SDS011;8021;48.022;11.812;2022-10-03T17:48:22;0.40;;;0.40;;
15841;SDS011;8021;48.022;11.812;2022-10-03T17:50:55;0.30;;;0.30;;
15841;SDS011;8021;48.022;11.812;2022-10-03T17:53:24;0.30;;;0.30;;
15841;SDS011;8021;48.022;11.812;2022-10-03T17:55:54;0.40;;;0.40;;
15841;SDS011;8021;48.022;11.812;2022-10-03T17:58:22;0.40;;;0.40;;
15841;SDS011;8021;48.022;11.812;2022-10-03T18:00:54;0.30;;;0.30;;
15841;SDS011;8021;48.022;11.812;2022-10-03T18:03:24;0.40;;;0.40;;
15841;SDS011;8021;48.022;11.812;2022-10-03T18:05:56;0.40;;;0.40;;
15841;SDS011;8021;48.022;11.812;2022-10-03T18:08:25;0.30;;;0.30;;
15841;SDS011;8021;48.022;11.812;2022-10-03T18:10:55;0.40;;;0.40;;
15841;SDS011;8021;48.022;11.812;2022-10-03T18:13:24;0.45;;;0.45;;
15841;SDS011;8021;48.022;11.812;2022-10-03T18:16:09;0.40;;;0.40;;
15841;SDS011;8021;48.022;11.812;2022-10-03T18:21:29;0.40;;;0.40;;
15841;SDS011;8021;48.022;11.812;2022-10-03T18:24:09;0.30;;;0.30;;
15841;SDS011;8021;48.022;11.812;2022-10-03T18:26:39;0.50;;;0.50;;
15841;SDS011;8021;48.022;11.812;2022-10-03T18:29:12;0.40;;;0.40;;
15841;SDS011;8021;48.022;11.812;2022-10-03T18:31:41;0.40;;;0.40;;
15841;SDS011;8021;48.022;11.812;2022-10-03T18:34:12;0.50;;;0.50;;